sensor_id;sensor_type;location;lat;lon;timestamp;P1;durP1;ratioP1;P2;durP2;ratioP2
55148;SDS011;49539;48.160;11.530;2024-02-15T00:00:13;2.03;;;1.50;;
55148;SDS011;49539;48.160;11.530;2024-02-15T00:02:40;3.60;;;1.35;;
55148;SDS011;49539;48.160;11.530;2024-02-15T00:05:08;3.20;;;0.82;;
55148;SDS011;49539;48.160;11.530;2024-02-15T00:07:33;1.80;;;0.80;;
55148;SDS011;49539;48.160;11.530;2024-02-15T00:10:00;3.22;;;1.48;;
55148;SDS011;49539;48.160;11.530;2024-02-15T00:12:25;2.35;;;1.13;;
55148;SDS011;49539;48.160;11.530;2024-02-15T00:14:51;2.25;;;1.10;;
55148;SDS011;49539;48.160;11.530;2024-02-15T00:17:16;2.10;;;0.80;;
55148;SDS011;49539;48.160;11.530;2024-02-15T00:19:44;2.55;;;1.10;;
55148;SDS011;49539;48.160;11.530;2024-02-15T00:22:11;3.17;;;1.50;;
55148;SDS011;49539;48.160;11.530;2024-02-15T00:24:38;1.75;;;1.00;;
55148;SDS011;49539;48.160;11.530;2024-02-15T00:27:03;2.30;;;0.90;;
55148;SDS011;49539;48.160;11.530;2024-02-15T00:29:29;2.35;;;1.00;;
55148;SDS011;49539;48.160;11.530;2024-02-15T00:31:54;2.40;;;0.80;;
55148;SDS011;49539;48.160;11.530;2024-02-15T00:34:20;2.97;;;1.60;;
55148;SDS011;49539;48.160;11.530;2024-02-15T00:36:46;3.20;;;1.30;;
55148;SDS011;49539;48.160;11.530;2024-02-15T00:39:11;2.83;;;1.15;;
55148;SDS011;49539;48.160;11.530;2024-02-15T00:41:37;2.40;;;1.45;;
55148;SDS011;49539;48.160;11.530;2024-02-15T00:44:09;1.80;;;1.05;;
55148;SDS011;49539;48.160;11.530;2024-02-15T00:46:38;2.15;;;1.05;;
55148;SDS011;49539;48.160;11.530;2024-02-15T00:49:03;2.63;;;1.27;;
55148;SDS011;49539;48.160;11.530;2024-02-15T00:51:32;1.15;;;0.80;;
55148;SDS011;49539;48.160;11.530;2024-02-15T00:53:59;2.47;;;0.90;;
55148;SDS011;49539;48.160;11.530;2024-02-15T00:56:24;1.52;;;0.82;;
55148;SDS011;49539;48.160;11.530;2024-02-15T00:58:50;2.70;;;1.13;;
55148;SDS011;49539;48.160;11.530;2024-02-15T01:01:15;1.63;;;0.93;;
55148;SDS011;49539;48.160;11.530;2024-02-15T01:03:40;3.53;;;1.35;;
55148;SDS011;49539;48.160;11.530;2024-02-15T01:06:06;2.22;;;1.13;;
55148;SDS011;49539;48.160;11.530;2024-02-15T01:08:33;2.20;;;0.93;;
55148;SDS011;49539;48.160;11.530;2024-02-15T01:10:59;0.88;;;0.75;;
55148;SDS011;49539;48.160;11.530;2024-02-15T01:13:24;2.28;;;0.90;;
55148;SDS011;49539;48.160;11.530;2024-02-15T01:15:50;1.75;;;1.02;;
55148;SDS011;49539;48.160;11.530;2024-02-15T01:18:15;2.10;;;0.95;;
55148;SDS011;49539;48.160;11.530;2024-02-15T01:20:41;2.13;;;0.98;;
55148;SDS011;49539;48.160;11.530;2024-02-15T01:23:06;2.00;;;1.00;;
55148;SDS011;49539;48.160;11.530;2024-02-15T01:25:33;2.25;;;1.00;;
55148;SDS011;49539;48.160;11.530;2024-02-15T01:27:58;1.70;;;1.05;;
55148;SDS011;49539;48.160;11.530;2024-02-15T01:30:23;1.15;;;0.85;;
55148;SDS011;49539;48.160;11.530;2024-02-15T01:32:49;1.48;;;0.98;;
55148;SDS011;49539;48.160;11.530;2024-02-15T01:35:14;1.70;;;1.00;;
55148;SDS011;49539;48.160;11.530;2024-02-15T01:37:39;1.88;;;1.00;;
55148;SDS011;49539;48.160;11.530;2024-02-15T01:40:05;1.63;;;0.90;;
55148;SDS011;49539;48.160;11.530;2024-02-15T01:42:32;2.78;;;1.38;;
55148;SDS011;49539;48.160;11.530;2024-02-15T01:44:58;2.35;;;1.05;;
55148;SDS011;49539;48.160;11.530;2024-02-15T01:47:23;5.85;;;1.55;;
55148;SDS011;49539;48.160;11.530;2024-02-15T01:49:49;2.05;;;1.05;;
55148;SDS011;49539;48.160;11.530;2024-02-15T01:52:15;2.10;;;1.50;;
55148;SDS011;49539;48.160;11.530;2024-02-15T01:54:42;2.22;;;0.93;;
55148;SDS011;49539;48.160;11.530;2024-02-15T01:57:07;2.55;;;1.13;;
55148;SDS011;49539;48.160;11.530;2024-02-15T01:59:33;1.73;;;1.10;;
55148;SDS011;49539;48.160;11.530;2024-02-15T02:01:58;2.45;;;1.10;;
55148;SDS011;49539;48.160;11.530;2024-02-15T02:04:24;2.42;;;1.13;;
55148;SDS011;49539;48.160;11.530;2024-02-15T02:06:49;1.73;;;1.00;;
55148;SDS011;49539;48.160;11.530;2024-02-15T02:09:14;2.83;;;0.93;;
55148;SDS011;49539;48.160;11.530;2024-02-15T02:11:41;1.92;;;0.90;;
55148;SDS011;49539;48.160;11.530;2024-02-15T02:14:06;2.47;;;0.93;;
55148;SDS011;49539;48.160;11.530;2024-02-15T02:16:33;2.88;;;1.02;;
55148;SDS011;49539;48.160;11.530;2024-02-15T02:19:02;2.15;;;1.30;;
55148;SDS011;49539;48.160;11.530;2024-02-15T02:21:27;1.70;;;1.10;;
55148;SDS011;49539;48.160;11.530;2024-02-15T02:23:55;3.53;;;1.25;;
55148;SDS011;49539;48.160;11.530;2024-02-15T02:26:21;2.30;;;1.00;;
55148;SDS011;49539;48.160;11.530;2024-02-15T02:28:47;1.92;;;0.98;;
55148;SDS011;49539;48.160;11.530;2024-02-15T02:31:13;1.73;;;1.00;;
55148;SDS011;49539;48.160;11.530;2024-02-15T02:33:39;1.77;;;0.93;;
55148;SDS011;49539;48.160;11.530;2024-02-15T02:36:04;3.10;;;1.10;;
55148;SDS011;49539;48.160;11.530;2024-02-15T02:38:35;2.28;;;1.20;;
55148;SDS011;49539;48.160;11.530;2024-02-15T02:41:03;2.42;;;1.05;;
55148;SDS011;49539;48.160;11.530;2024-02-15T02:43:29;1.73;;;1.15;;
55148;SDS011;49539;48.160;11.530;2024-02-15T02:45:54;2.38;;;1.05;;
55148;SDS011;49539;48.160;11.530;2024-02-15T02:48:19;2.63;;;1.13;;
55148;SDS011;49539;48.160;11.530;2024-02-15T02:50:44;1.52;;;0.75;;
55148;SDS011;49539;48.160;11.530;2024-02-15T02:53:10;2.40;;;1.08;;
55148;SDS011;49539;48.160;11.530;2024-02-15T02:55:36;1.55;;;0.85;;
55148;SDS011;49539;48.160;11.530;2024-02-15T02:58:01;1.48;;;0.80;;
55148;SDS011;49539;48.160;11.530;2024-02-15T03:00:27;4.30;;;1.25;;
55148;SDS011;49539;48.160;11.530;2024-02-15T03:02:52;1.83;;;0.85;;
55148;SDS011;49539;48.160;11.530;2024-02-15T03:05:21;2.10;;;1.17;;
55148;SDS011;49539;48.160;11.530;2024-02-15T03:07:47;2.33;;;0.80;;
55148;SDS011;49539;48.160;11.530;2024-02-15T03:10:12;0.95;;;0.63;;
55148;SDS011;49539;48.160;11.530;2024-02-15T03:12:38;4.20;;;1.00;;
55148;SDS011;49539;48.160;11.530;2024-02-15T03:15:04;2.55;;;1.73;;
55148;SDS011;49539;48.160;11.530;2024-02-15T03:17:33;1.90;;;1.00;;
55148;SDS011;49539;48.160;11.530;2024-02-15T03:19:58;3.20;;;1.35;;
55148;SDS011;49539;48.160;11.530;2024-02-15T03:22:24;1.20;;;0.80;;
55148;SDS011;49539;48.160;11.530;2024-02-15T03:24:51;2.05;;;1.02;;
55148;SDS011;49539;48.160;11.530;2024-02-15T03:27:16;1.63;;;0.90;;
55148;SDS011;49539;48.160;11.530;2024-02-15T03:29:41;2.17;;;0.88;;
55148;SDS011;49539;48.160;11.530;2024-02-15T03:32:07;3.30;;;1.00;;
55148;SDS011;49539;48.160;11.530;2024-02-15T03:34:35;2.72;;;0.90;;
55148;SDS011;49539;48.160;11.530;2024-02-15T03:37:01;2.30;;;0.80;;
55148;SDS011;49539;48.160;11.530;2024-02-15T03:39:28;1.60;;;0.98;;
55148;SDS011;49539;48.160;11.530;2024-02-15T03:41:54;2.63;;;1.35;;
55148;SDS011;49539;48.160;11.530;2024-02-15T03:44:20;1.75;;;1.10;;
55148;SDS011;49539;48.160;11.530;2024-02-15T03:46:45;3.55;;;1.50;;
55148;SDS011;49539;48.160;11.530;2024-02-15T03:49:16;1.50;;;1.05;;
55148;SDS011;49539;48.160;11.530;2024-02-15T03:51:42;2.15;;;1.20;;
55148;SDS011;49539;48.160;11.530;2024-02-15T03:54:10;1.80;;;1.08;;
55148;SDS011;49539;48.160;11.530;2024-02-15T03:56:35;1.90;;;1.00;;
55148;SDS011;49539;48.160;11.530;2024-02-15T03:59:01;1.40;;;1.00;;
55148;SDS011;49539;48.160;11.530;2024-02-15T04:01:29;1.88;;;0.90;;
55148;SDS011;49539;48.160;11.530;2024-02-15T04:03:58;2.03;;;1.13;;
55148;SDS011;49539;48.160;11.530;2024-02-15T04:06:24;1.63;;;1.00;;
55148;SDS011;49539;48.160;11.530;2024-02-15T04:08:51;1.92;;;0.90;;
55148;SDS011;49539;48.160;11.530;2024-02-15T04:11:17;1.42;;;1.00;;
55148;SDS011;49539;48.160;11.530;2024-02-15T04:13:44;3.03;;;0.98;;
55148;SDS011;49539;48.160;11.530;2024-02-15T04:16:10;2.40;;;1.10;;
55148;SDS011;49539;48.160;11.530;2024-02-15T04:18:35;2.00;;;0.90;;
55148;SDS011;49539;48.160;11.530;2024-02-15T04:21:00;2.78;;;1.40;;
55148;SDS011;49539;48.160;11.530;2024-02-15T04:23:26;1.83;;;0.90;;
55148;SDS011;49539;48.160;11.530;2024-02-15T04:25:51;1.92;;;1.08;;
55148;SDS011;49539;48.160;11.530;2024-02-15T04:28:17;2.63;;;1.17;;
55148;SDS011;49539;48.160;11.530;2024-02-15T04:30:42;2.25;;;1.30;;
55148;SDS011;49539;48.160;11.530;2024-02-15T04:33:07;4.45;;;1.50;;
55148;SDS011;49539;48.160;11.530;2024-02-15T04:35:33;2.70;;;0.80;;
55148;SDS011;49539;48.160;11.530;2024-02-15T04:37:58;2.13;;;1.30;;
55148;SDS011;49539;48.160;11.530;2024-02-15T04:40:24;2.30;;;1.10;;
55148;SDS011;49539;48.160;11.530;2024-02-15T04:42:49;3.17;;;1.38;;
55148;SDS011;49539;48.160;11.530;2024-02-15T04:45:14;2.53;;;1.10;;
55148;SDS011;49539;48.160;11.530;2024-02-15T04:47:40;2.88;;;1.17;;
55148;SDS011;49539;48.160;11.530;2024-02-15T04:50:06;3.28;;;1.15;;
55148;SDS011;49539;48.160;11.530;2024-02-15T04:52:32;1.60;;;0.88;;
55148;SDS011;49539;48.160;11.530;2024-02-15T04:54:58;2.70;;;1.25;;
55148;SDS011;49539;48.160;11.530;2024-02-15T04:57:24;5.65;;;1.30;;
55148;SDS011;49539;48.160;11.530;2024-02-15T04:59:50;3.25;;;1.35;;
55148;SDS011;49539;48.160;11.530;2024-02-15T05:02:16;3.95;;;1.10;;
55148;SDS011;49539;48.160;11.530;2024-02-15T05:04:44;4.82;;;1.67;;
55148;SDS011;49539;48.160;11.530;2024-02-15T05:07:10;2.40;;;1.55;;
55148;SDS011;49539;48.160;11.530;2024-02-15T05:09:35;2.40;;;1.17;;
55148;SDS011;49539;48.160;11.530;2024-02-15T05:12:01;3.95;;;1.40;;
55148;SDS011;49539;48.160;11.530;2024-02-15T05:14:27;1.65;;;0.80;;
55148;SDS011;49539;48.160;11.530;2024-02-15T05:16:53;3.80;;;1.20;;
55148;SDS011;49539;48.160;11.530;2024-02-15T05:19:18;2.83;;;1.40;;
55148;SDS011;49539;48.160;11.530;2024-02-15T05:21:44;2.20;;;1.13;;
55148;SDS011;49539;48.160;11.530;2024-02-15T05:24:12;2.85;;;1.27;;
55148;SDS011;49539;48.160;11.530;2024-02-15T05:26:39;2.65;;;1.15;;
55148;SDS011;49539;48.160;11.530;2024-02-15T05:29:04;2.83;;;1.20;;
55148;SDS011;49539;48.160;11.530;2024-02-15T05:31:30;6.07;;;1.85;;
55148;SDS011;49539;48.160;11.530;2024-02-15T05:33:55;6.10;;;1.67;;
55148;SDS011;49539;48.160;11.530;2024-02-15T05:36:21;2.30;;;1.25;;
55148;SDS011;49539;48.160;11.530;2024-02-15T05:38:50;4.03;;;1.70;;
55148;SDS011;49539;48.160;11.530;2024-02-15T05:41:16;5.03;;;1.52;;
55148;SDS011;49539;48.160;11.530;2024-02-15T05:43:41;3.63;;;1.45;;
55148;SDS011;49539;48.160;11.530;2024-02-15T05:46:07;3.60;;;1.35;;
55148;SDS011;49539;48.160;11.530;2024-02-15T05:48:33;2.00;;;1.20;;
55148;SDS011;49539;48.160;11.530;2024-02-15T05:51:05;6.72;;;1.48;;
55148;SDS011;49539;48.160;11.530;2024-02-15T05:53:34;2.60;;;1.23;;
55148;SDS011;49539;48.160;11.530;2024-02-15T05:56:07;3.28;;;1.15;;
55148;SDS011;49539;48.160;11.530;2024-02-15T05:58:33;8.82;;;1.30;;
55148;SDS011;49539;48.160;11.530;2024-02-15T06:00:58;4.40;;;1.38;;
55148;SDS011;49539;48.160;11.530;2024-02-15T06:03:30;4.82;;;1.88;;
55148;SDS011;49539;48.160;11.530;2024-02-15T06:05:58;2.53;;;1.40;;
55148;SDS011;49539;48.160;11.530;2024-02-15T06:08:27;3.75;;;1.70;;
55148;SDS011;49539;48.160;11.530;2024-02-15T06:10:54;2.35;;;1.40;;
55148;SDS011;49539;48.160;11.530;2024-02-15T06:13:20;5.43;;;1.27;;
55148;SDS011;49539;48.160;11.530;2024-02-15T06:15:45;5.05;;;1.80;;
55148;SDS011;49539;48.160;11.530;2024-02-15T06:18:14;6.40;;;2.28;;
55148;SDS011;49539;48.160;11.530;2024-02-15T06:20:41;3.17;;;1.60;;
55148;SDS011;49539;48.160;11.530;2024-02-15T06:23:08;4.60;;;1.70;;
55148;SDS011;49539;48.160;11.530;2024-02-15T06:25:34;3.60;;;1.45;;
55148;SDS011;49539;48.160;11.530;2024-02-15T06:27:59;6.85;;;1.55;;
55148;SDS011;49539;48.160;11.530;2024-02-15T06:30:30;1.50;;;1.05;;
55148;SDS011;49539;48.160;11.530;2024-02-15T06:33:14;3.80;;;1.17;;
55148;SDS011;49539;48.160;11.530;2024-02-15T06:35:58;3.37;;;1.30;;
55148;SDS011;49539;48.160;11.530;2024-02-15T06:38:42;1.90;;;1.10;;
55148;SDS011;49539;48.160;11.530;2024-02-15T06:41:25;5.03;;;1.60;;
55148;SDS011;49539;48.160;11.530;2024-02-15T06:43:53;2.53;;;1.50;;
55148;SDS011;49539;48.160;11.530;2024-02-15T06:46:18;6.10;;;1.70;;
55148;SDS011;49539;48.160;11.530;2024-02-15T06:48:44;2.03;;;0.93;;
55148;SDS011;49539;48.160;11.530;2024-02-15T06:51:12;5.25;;;1.55;;
55148;SDS011;49539;48.160;11.530;2024-02-15T06:53:40;2.17;;;1.10;;
55148;SDS011;49539;48.160;11.530;2024-02-15T06:56:05;3.53;;;1.20;;
55148;SDS011;49539;48.160;11.530;2024-02-15T06:58:30;2.65;;;1.15;;
55148;SDS011;49539;48.160;11.530;2024-02-15T07:00:56;4.47;;;1.25;;
55148;SDS011;49539;48.160;11.530;2024-02-15T07:03:21;3.72;;;1.13;;
55148;SDS011;49539;48.160;11.530;2024-02-15T07:05:48;3.03;;;1.52;;
55148;SDS011;49539;48.160;11.530;2024-02-15T07:08:14;6.65;;;1.42;;
55148;SDS011;49539;48.160;11.530;2024-02-15T07:10:40;3.80;;;1.65;;
55148;SDS011;49539;48.160;11.530;2024-02-15T07:13:05;4.90;;;1.13;;
55148;SDS011;49539;48.160;11.530;2024-02-15T07:15:33;2.47;;;0.95;;
55148;SDS011;49539;48.160;11.530;2024-02-15T07:18:03;6.00;;;1.48;;
55148;SDS011;49539;48.160;11.530;2024-02-15T07:20:31;5.28;;;1.67;;
55148;SDS011;49539;48.160;11.530;2024-02-15T07:22:56;2.42;;;1.15;;
55148;SDS011;49539;48.160;11.530;2024-02-15T07:25:23;2.13;;;1.30;;
55148;SDS011;49539;48.160;11.530;2024-02-15T07:27:48;2.15;;;1.02;;
55148;SDS011;49539;48.160;11.530;2024-02-15T07:30:14;4.00;;;1.25;;
55148;SDS011;49539;48.160;11.530;2024-02-15T07:32:40;6.70;;;1.13;;
55148;SDS011;49539;48.160;11.530;2024-02-15T07:35:05;2.90;;;1.23;;
55148;SDS011;49539;48.160;11.530;2024-02-15T07:37:33;3.75;;;1.45;;
55148;SDS011;49539;48.160;11.530;2024-02-15T07:39:59;2.17;;;1.17;;
55148;SDS011;49539;48.160;11.530;2024-02-15T07:42:24;2.60;;;1.33;;
55148;SDS011;49539;48.160;11.530;2024-02-15T07:44:51;3.28;;;1.10;;
55148;SDS011;49539;48.160;11.530;2024-02-15T07:47:18;2.10;;;1.00;;
55148;SDS011;49539;48.160;11.530;2024-02-15T07:49:46;5.32;;;1.17;;
55148;SDS011;49539;48.160;11.530;2024-02-15T07:52:11;2.40;;;0.98;;
55148;SDS011;49539;48.160;11.530;2024-02-15T07:54:38;2.35;;;1.00;;
55148;SDS011;49539;48.160;11.530;2024-02-15T07:57:04;2.88;;;1.30;;
55148;SDS011;49539;48.160;11.530;2024-02-15T07:59:30;2.15;;;1.15;;
55148;SDS011;49539;48.160;11.530;2024-02-15T08:01:55;7.20;;;1.42;;
55148;SDS011;49539;48.160;11.530;2024-02-15T08:04:20;2.03;;;1.10;;
55148;SDS011;49539;48.160;11.530;2024-02-15T08:06:46;3.10;;;1.30;;
55148;SDS011;49539;48.160;11.530;2024-02-15T08:09:15;1.83;;;1.05;;
55148;SDS011;49539;48.160;11.530;2024-02-15T08:11:46;3.33;;;1.27;;
55148;SDS011;49539;48.160;11.530;2024-02-15T08:14:11;2.65;;;1.30;;
55148;SDS011;49539;48.160;11.530;2024-02-15T08:16:37;2.83;;;1.08;;
55148;SDS011;49539;48.160;11.530;2024-02-15T08:19:04;3.08;;;1.17;;
55148;SDS011;49539;48.160;11.530;2024-02-15T08:21:31;5.45;;;1.40;;
55148;SDS011;49539;48.160;11.530;2024-02-15T08:23:58;2.25;;;1.05;;
55148;SDS011;49539;48.160;11.530;2024-02-15T08:26:24;2.72;;;1.35;;
55148;SDS011;49539;48.160;11.530;2024-02-15T08:28:49;2.05;;;0.95;;
55148;SDS011;49539;48.160;11.530;2024-02-15T08:31:14;5.13;;;1.65;;
55148;SDS011;49539;48.160;11.530;2024-02-15T08:33:44;3.75;;;1.10;;
55148;SDS011;49539;48.160;11.530;2024-02-15T08:36:11;2.65;;;1.08;;
55148;SDS011;49539;48.160;11.530;2024-02-15T08:38:38;4.22;;;1.42;;
55148;SDS011;49539;48.160;11.530;2024-02-15T08:41:03;11.75;;;1.48;;
55148;SDS011;49539;48.160;11.530;2024-02-15T08:43:33;2.90;;;1.15;;
55148;SDS011;49539;48.160;11.530;2024-02-15T08:45:58;4.55;;;1.10;;
55148;SDS011;49539;48.160;11.530;2024-02-15T08:48:24;2.75;;;0.73;;
55148;SDS011;49539;48.160;11.530;2024-02-15T08:50:49;4.25;;;0.98;;
55148;SDS011;49539;48.160;11.530;2024-02-15T08:53:15;2.97;;;1.13;;
55148;SDS011;49539;48.160;11.530;2024-02-15T08:55:40;1.35;;;0.88;;
55148;SDS011;49539;48.160;11.530;2024-02-15T08:58:06;2.50;;;1.95;;
55148;SDS011;49539;48.160;11.530;2024-02-15T09:00:31;4.68;;;1.40;;
55148;SDS011;49539;48.160;11.530;2024-02-15T09:02:57;3.47;;;1.20;;
55148;SDS011;49539;48.160;11.530;2024-02-15T09:05:22;2.78;;;1.20;;
55148;SDS011;49539;48.160;11.530;2024-02-15T09:07:47;2.22;;;0.85;;
55148;SDS011;49539;48.160;11.530;2024-02-15T09:10:13;3.25;;;1.30;;
55148;SDS011;49539;48.160;11.530;2024-02-15T09:12:39;4.80;;;1.15;;
55148;SDS011;49539;48.160;11.530;2024-02-15T09:15:08;2.95;;;1.20;;
55148;SDS011;49539;48.160;11.530;2024-02-15T09:17:34;2.45;;;1.13;;
55148;SDS011;49539;48.160;11.530;2024-02-15T09:20:12;4.90;;;1.55;;
55148;SDS011;49539;48.160;11.530;2024-02-15T09:22:58;3.40;;;1.10;;
55148;SDS011;49539;48.160;11.530;2024-02-15T09:25:29;3.05;;;1.52;;
55148;SDS011;49539;48.160;11.530;2024-02-15T09:27:56;8.45;;;1.80;;
55148;SDS011;49539;48.160;11.530;2024-02-15T09:30:21;3.15;;;1.33;;
55148;SDS011;49539;48.160;11.530;2024-02-15T09:32:50;1.80;;;1.17;;
55148;SDS011;49539;48.160;11.530;2024-02-15T09:35:15;2.97;;;1.50;;
55148;SDS011;49539;48.160;11.530;2024-02-15T09:37:47;4.90;;;1.50;;
55148;SDS011;49539;48.160;11.530;2024-02-15T09:40:16;5.88;;;1.17;;
55148;SDS011;49539;48.160;11.530;2024-02-15T09:42:42;4.40;;;1.67;;
55148;SDS011;49539;48.160;11.530;2024-02-15T09:45:10;4.15;;;1.30;;
55148;SDS011;49539;48.160;11.530;2024-02-15T09:47:36;2.83;;;1.30;;
55148;SDS011;49539;48.160;11.530;2024-02-15T09:50:02;1.83;;;1.20;;
55148;SDS011;49539;48.160;11.530;2024-02-15T09:52:29;2.17;;;1.15;;
55148;SDS011;49539;48.160;11.530;2024-02-15T09:54:57;4.00;;;1.38;;
55148;SDS011;49539;48.160;11.530;2024-02-15T09:57:22;4.32;;;1.33;;
55148;SDS011;49539;48.160;11.530;2024-02-15T09:59:47;2.33;;;1.25;;
55148;SDS011;49539;48.160;11.530;2024-02-15T10:02:13;2.80;;;1.40;;
55148;SDS011;49539;48.160;11.530;2024-02-15T10:04:39;2.35;;;1.30;;
55148;SDS011;49539;48.160;11.530;2024-02-15T10:07:04;5.88;;;1.10;;
55148;SDS011;49539;48.160;11.530;2024-02-15T10:09:30;2.38;;;0.75;;
55148;SDS011;49539;48.160;11.530;2024-02-15T10:11:56;2.33;;;0.82;;
55148;SDS011;49539;48.160;11.530;2024-02-15T10:14:22;1.13;;;0.70;;
55148;SDS011;49539;48.160;11.530;2024-02-15T10:16:48;2.72;;;0.90;;
55148;SDS011;49539;48.160;11.530;2024-02-15T10:19:13;5.28;;;1.17;;
55148;SDS011;49539;48.160;11.530;2024-02-15T10:21:40;1.98;;;1.20;;
55148;SDS011;49539;48.160;11.530;2024-02-15T10:24:06;2.17;;;1.00;;
55148;SDS011;49539;48.160;11.530;2024-02-15T10:26:32;2.20;;;0.90;;
55148;SDS011;49539;48.160;11.530;2024-02-15T10:29:10;1.38;;;0.65;;
55148;SDS011;49539;48.160;11.530;2024-02-15T10:31:39;2.33;;;0.70;;
55148;SDS011;49539;48.160;11.530;2024-02-15T10:34:13;2.35;;;1.30;;
55148;SDS011;49539;48.160;11.530;2024-02-15T10:36:39;3.40;;;1.20;;
55148;SDS011;49539;48.160;11.530;2024-02-15T10:39:17;0.90;;;0.60;;
55148;SDS011;49539;48.160;11.530;2024-02-15T10:41:44;1.55;;;0.73;;
55148;SDS011;49539;48.160;11.530;2024-02-15T10:44:17;1.27;;;0.90;;
55148;SDS011;49539;48.160;11.530;2024-02-15T10:46:50;2.35;;;0.70;;
55148;SDS011;49539;48.160;11.530;2024-02-15T10:49:18;1.65;;;0.82;;
55148;SDS011;49539;48.160;11.530;2024-02-15T10:51:45;1.65;;;0.75;;
55148;SDS011;49539;48.160;11.530;2024-02-15T10:54:15;0.60;;;0.50;;
55148;SDS011;49539;48.160;11.530;2024-02-15T10:56:43;1.60;;;0.65;;
55148;SDS011;49539;48.160;11.530;2024-02-15T11:01:40;1.33;;;0.70;;
55148;SDS011;49539;48.160;11.530;2024-02-15T11:04:07;2.25;;;0.70;;
55148;SDS011;49539;48.160;11.530;2024-02-15T11:06:33;2.83;;;0.80;;
55148;SDS011;49539;48.160;11.530;2024-02-15T11:09:00;1.13;;;0.60;;
55148;SDS011;49539;48.160;11.530;2024-02-15T11:11:26;2.45;;;0.55;;
55148;SDS011;49539;48.160;11.530;2024-02-15T11:14:22;2.30;;;0.90;;
55148;SDS011;49539;48.160;11.530;2024-02-15T11:16:43;1.83;;;0.77;;
55148;SDS011;49539;48.160;11.530;2024-02-15T11:19:08;1.75;;;0.65;;
55148;SDS011;49539;48.160;11.530;2024-02-15T11:21:53;1.58;;;0.60;;
55148;SDS011;49539;48.160;11.530;2024-02-15T11:24:30;2.47;;;0.82;;
55148;SDS011;49539;48.160;11.530;2024-02-15T11:32:30;1.48;;;0.68;;
55148;SDS011;49539;48.160;11.530;2024-02-15T11:35:06;0.75;;;0.40;;
55148;SDS011;49539;48.160;11.530;2024-02-15T11:42:48;1.98;;;0.50;;
55148;SDS011;49539;48.160;11.530;2024-02-15T11:45:15;4.97;;;1.02;;
55148;SDS011;49539;48.160;11.530;2024-02-15T11:47:43;1.00;;;0.60;;
55148;SDS011;49539;48.160;11.530;2024-02-15T11:50:14;0.80;;;0.50;;
55148;SDS011;49539;48.160;11.530;2024-02-15T11:52:43;2.75;;;0.80;;
55148;SDS011;49539;48.160;11.530;2024-02-15T11:55:11;2.38;;;0.82;;
55148;SDS011;49539;48.160;11.530;2024-02-15T11:57:41;1.50;;;0.77;;
55148;SDS011;49539;48.160;11.530;2024-02-15T12:00:22;2.53;;;0.90;;
55148;SDS011;49539;48.160;11.530;2024-02-15T12:03:06;1.80;;;0.80;;
55148;SDS011;49539;48.160;11.530;2024-02-15T12:05:50;1.70;;;0.70;;
55148;SDS011;49539;48.160;11.530;2024-02-15T12:08:39;1.13;;;0.50;;
55148;SDS011;49539;48.160;11.530;2024-02-15T12:11:23;0.30;;;0.30;;
55148;SDS011;49539;48.160;11.530;2024-02-15T12:14:06;1.60;;;0.63;;
55148;SDS011;49539;48.160;11.530;2024-02-15T12:17:00;1.02;;;0.70;;
55148;SDS011;49539;48.160;11.530;2024-02-15T12:22:10;1.65;;;0.75;;
55148;SDS011;49539;48.160;11.530;2024-02-15T12:24:35;6.07;;;0.85;;
55148;SDS011;49539;48.160;11.530;2024-02-15T12:27:01;1.42;;;0.70;;
55148;SDS011;49539;48.160;11.530;2024-02-15T12:29:31;1.25;;;0.70;;
55148;SDS011;49539;48.160;11.530;2024-02-15T12:31:58;0.95;;;0.60;;
55148;SDS011;49539;48.160;11.530;2024-02-15T12:34:23;0.70;;;0.43;;
55148;SDS011;49539;48.160;11.530;2024-02-15T12:36:49;0.80;;;0.40;;
55148;SDS011;49539;48.160;11.530;2024-02-15T12:39:15;1.50;;;0.80;;
55148;SDS011;49539;48.160;11.530;2024-02-15T12:41:50;3.47;;;0.73;;
55148;SDS011;49539;48.160;11.530;2024-02-15T12:44:16;1.67;;;0.73;;
55148;SDS011;49539;48.160;11.530;2024-02-15T12:46:45;1.80;;;0.63;;
55148;SDS011;49539;48.160;11.530;2024-02-15T12:49:34;1.25;;;0.60;;
55148;SDS011;49539;48.160;11.530;2024-02-15T12:54:43;1.52;;;0.68;;
55148;SDS011;49539;48.160;11.530;2024-02-15T12:57:10;0.98;;;0.50;;
55148;SDS011;49539;48.160;11.530;2024-02-15T12:59:39;1.33;;;0.68;;
55148;SDS011;49539;48.160;11.530;2024-02-15T13:02:04;1.33;;;0.50;;
55148;SDS011;49539;48.160;11.530;2024-02-15T13:04:30;1.08;;;0.57;;
55148;SDS011;49539;48.160;11.530;2024-02-15T13:07:00;1.58;;;0.60;;
55148;SDS011;49539;48.160;11.530;2024-02-15T13:09:26;1.73;;;0.70;;
55148;SDS011;49539;48.160;11.530;2024-02-15T13:11:51;0.98;;;0.52;;
55148;SDS011;49539;48.160;11.530;2024-02-15T13:14:19;6.00;;;0.88;;
55148;SDS011;49539;48.160;11.530;2024-02-15T13:16:45;1.33;;;0.52;;
55148;SDS011;49539;48.160;11.530;2024-02-15T13:19:11;3.00;;;0.63;;
55148;SDS011;49539;48.160;11.530;2024-02-15T13:21:37;1.70;;;0.88;;
55148;SDS011;49539;48.160;11.530;2024-02-15T13:24:02;1.38;;;0.60;;
55148;SDS011;49539;48.160;11.530;2024-02-15T13:26:31;2.30;;;0.80;;
55148;SDS011;49539;48.160;11.530;2024-02-15T13:28:57;3.13;;;0.77;;
55148;SDS011;49539;48.160;11.530;2024-02-15T13:31:23;1.58;;;0.70;;
55148;SDS011;49539;48.160;11.530;2024-02-15T13:33:48;1.77;;;0.60;;
55148;SDS011;49539;48.160;11.530;2024-02-15T13:36:14;2.97;;;1.05;;
55148;SDS011;49539;48.160;11.530;2024-02-15T13:38:40;5.05;;;0.70;;
55148;SDS011;49539;48.160;11.530;2024-02-15T13:41:06;2.22;;;0.95;;
55148;SDS011;49539;48.160;11.530;2024-02-15T13:43:31;1.60;;;0.77;;
55148;SDS011;49539;48.160;11.530;2024-02-15T13:45:57;3.17;;;0.70;;
55148;SDS011;49539;48.160;11.530;2024-02-15T13:48:23;1.25;;;0.80;;
55148;SDS011;49539;48.160;11.530;2024-02-15T13:50:51;2.58;;;0.60;;
55148;SDS011;49539;48.160;11.530;2024-02-15T13:53:18;1.73;;;0.70;;
55148;SDS011;49539;48.160;11.530;2024-02-15T13:55:45;4.32;;;0.70;;
55148;SDS011;49539;48.160;11.530;2024-02-15T13:58:12;4.78;;;0.70;;
55148;SDS011;49539;48.160;11.530;2024-02-15T14:00:38;1.17;;;0.63;;
55148;SDS011;49539;48.160;11.530;2024-02-15T14:03:07;1.70;;;0.60;;
55148;SDS011;49539;48.160;11.530;2024-02-15T14:05:36;2.13;;;0.73;;
55148;SDS011;49539;48.160;11.530;2024-02-15T14:08:04;1.35;;;0.52;;
55148;SDS011;49539;48.160;11.530;2024-02-15T14:10:38;1.30;;;0.70;;
55148;SDS011;49539;48.160;11.530;2024-02-15T14:13:04;1.88;;;0.60;;
55148;SDS011;49539;48.160;11.530;2024-02-15T14:15:39;2.17;;;0.80;;
55148;SDS011;49539;48.160;11.530;2024-02-15T14:18:08;1.45;;;0.80;;
55148;SDS011;49539;48.160;11.530;2024-02-15T14:20:43;1.80;;;0.90;;
55148;SDS011;49539;48.160;11.530;2024-02-15T14:23:09;4.32;;;0.73;;
55148;SDS011;49539;48.160;11.530;2024-02-15T14:25:39;4.45;;;0.90;;
55148;SDS011;49539;48.160;11.530;2024-02-15T14:28:05;7.00;;;1.17;;
55148;SDS011;49539;48.160;11.530;2024-02-15T14:30:36;1.63;;;0.57;;
55148;SDS011;49539;48.160;11.530;2024-02-15T14:33:20;2.72;;;0.80;;
55148;SDS011;49539;48.160;11.530;2024-02-15T14:35:47;4.05;;;0.80;;
55148;SDS011;49539;48.160;11.530;2024-02-15T14:38:14;1.75;;;0.80;;
55148;SDS011;49539;48.160;11.530;2024-02-15T14:40:42;1.40;;;0.60;;
55148;SDS011;49539;48.160;11.530;2024-02-15T14:43:10;3.60;;;0.68;;
55148;SDS011;49539;48.160;11.530;2024-02-15T14:45:40;2.03;;;0.70;;
55148;SDS011;49539;48.160;11.530;2024-02-15T14:48:12;1.65;;;0.63;;
55148;SDS011;49539;48.160;11.530;2024-02-15T14:50:39;2.85;;;0.75;;
55148;SDS011;49539;48.160;11.530;2024-02-15T14:53:05;1.58;;;0.90;;